Time;durP1;ratioP1;P1;durP2;ratioP2;P2;SDS_P1;SDS_P2;PMS_P1;PMS_P2;Temp;Humidity;BMP_temperature;BMP_pressure;BME280_temperature;BME280_humidity;BME280_pressure;Samples;Min_cycle;Max_cycle;Signal;HPM_P1;HPM_P2
2021/06/17 00:00:57;;;;;;;9.37;7.47;;;;;;;;;;4991242;28;20400;-49
2021/06/17 00:03:23;;;;;;;8.33;7.50;;;;;;;;;;4991312;28;20450;-49
2021/06/17 00:05:49;;;;;;;7.70;7.10;;;;;;;;;;4991203;28;20463;-49
2021/06/17 00:08:15;;;;;;;7.40;6.67;;;;;;;;;;4991315;28;20414;-49
2021/06/17 00:10:43;;;;;;;7.63;7.00;;;;;;;;;;4991154;28;20412;-49
2021/06/17 00:13:11;;;;;;;7.83;7.13;;;;;;;;;;4991054;28;20455;-49
2021/06/17 00:15:38;;;;;;;7.37;6.67;;;;;;;;;;4991164;28;20400;-49
2021/06/17 00:18:05;;;;;;;7.90;7.23;;;;;;;;;;4991112;28;20408;-49
2021/06/17 00:20:31;;;;;;;8.40;7.00;;;;;;;;;;4991166;28;20411;-49
2021/06/17 00:22:58;;;;;;;9.23;6.80;;;;;;;;;;4991074;28;20856;-49
2021/06/17 00:25:24;;;;;;;6.53;5.93;;;;;;;;;;4991041;28;20893;-49
2021/06/17 00:27:50;;;;;;;7.27;6.67;;;;;;;;;;4990996;28;20423;-49
2021/06/17 00:30:16;;;;;;;6.67;6.17;;;;;;;;;;4991092;28;20443;-49
2021/06/17 00:32:42;;;;;;;6.57;5.90;;;;;;;;;;4990989;28;20991;-49
2021/06/17 00:35:09;;;;;;;9.67;6.37;;;;;;;;;;4991078;28;20427;-49
2021/06/17 00:37:35;;;;;;;7.10;6.50;;;;;;;;;;4990981;28;20404;-49
2021/06/17 00:40:01;;;;;;;6.80;6.27;;;;;;;;;;4990916;28;20880;-49
2021/06/17 00:42:27;;;;;;;9.10;6.50;;;;;;;;;;4990984;28;20604;-49
2021/06/17 00:44:53;;;;;;;8.83;5.70;;;;;;;;;;4990947;28;20423;-49
2021/06/17 00:47:19;;;;;;;6.83;6.23;;;;;;;;;;4991077;28;20908;-49
2021/06/17 00:49:45;;;;;;;6.63;6.13;;;;;;;;;;4991046;28;20442;-48
2021/06/17 00:52:11;;;;;;;6.60;6.00;;;;;;;;;;4990646;28;21027;-49
2021/06/17 00:54:37;;;;;;;7.23;6.70;;;;;;;;;;4990874;28;20388;-49
2021/06/17 00:57:05;;;;;;;6.63;6.13;;;;;;;;;;4990607;28;20410;-49
2021/06/17 00:59:31;;;;;;;7.83;7.13;;;;;;;;;;4991090;28;20400;-49
2021/06/17 01:01:58;;;;;;;8.27;7.43;;;;;;;;;;4992173;28;20431;-49
2021/06/17 01:04:27;;;;;;;7.07;6.57;;;;;;;;;;4994062;28;20814;-49
2021/06/17 01:06:54;;;;;;;6.80;6.10;;;;;;;;;;4994158;28;20408;-49
2021/06/17 01:09:24;;;;;;;7.87;7.07;;;;;;;;;;4994513;28;20917;-49
2021/06/17 01:11:50;;;;;;;8.23;7.40;;;;;;;;;;4994621;28;20424;-49
2021/06/17 01:14:22;;;;;;;7.30;6.60;;;;;;;;;;4977049;28;20533;-49
2021/06/17 01:16:49;;;;;;;7.17;6.47;;;;;;;;;;4994195;28;20412;-49
2021/06/17 01:19:24;;;;;;;8.10;7.03;;;;;;;;;;4994404;28;20400;-49
2021/06/17 01:21:59;;;;;;;8.10;7.23;;;;;;;;;;4993995;28;20946;-49
2021/06/17 01:24:44;;;;;;;10.33;7.20;;;;;;;;;;4994135;28;20400;-49
2021/06/17 01:27:16;;;;;;;10.50;7.80;;;;;;;;;;4993857;28;20613;-49
2021/06/17 01:29:45;;;;;;;9.47;8.57;;;;;;;;;;4994113;28;20392;-49
2021/06/17 01:32:12;;;;;;;9.13;7.40;;;;;;;;;;4993714;28;20420;-49
2021/06/17 01:34:38;;;;;;;8.73;7.80;;;;;;;;;;4994028;28;20487;-49
2021/06/17 01:37:10;;;;;;;9.40;7.90;;;;;;;;;;4993636;28;20396;-49
2021/06/17 01:39:38;;;;;;;9.60;8.60;;;;;;;;;;4993941;28;20515;-49
2021/06/17 01:42:05;;;;;;;18.53;9.37;;;;;;;;;;4993987;28;20928;-49
2021/06/17 01:44:33;;;;;;;9.20;7.53;;;;;;;;;;4993802;28;20400;-49
2021/06/17 01:46:59;;;;;;;12.87;8.20;;;;;;;;;;4993341;28;20494;-49
2021/06/17 01:49:26;;;;;;;10.60;8.87;;;;;;;;;;4993760;28;20888;-49
2021/06/17 01:51:52;;;;;;;11.67;9.20;;;;;;;;;;4993366;28;20420;-49
2021/06/17 01:54:21;;;;;;;9.00;8.20;;;;;;;;;;4993560;28;20602;-49
2021/06/17 01:56:49;;;;;;;15.60;7.97;;;;;;;;;;4993339;28;20404;-49
2021/06/17 01:59:16;;;;;;;8.00;7.30;;;;;;;;;;4993485;28;20924;-49
2021/06/17 02:01:43;;;;;;;12.60;8.23;;;;;;;;;;4993263;28;20800;-49
2021/06/17 02:04:09;;;;;;;8.80;7.37;;;;;;;;;;4993398;28;20415;-49
2021/06/17 02:06:35;;;;;;;9.67;7.10;;;;;;;;;;4993213;28;20409;-49
2021/06/17 02:09:02;;;;;;;11.30;8.00;;;;;;;;;;4993370;28;20415;-49
2021/06/17 02:11:28;;;;;;;7.93;7.00;;;;;;;;;;4993273;28;20423;-49
2021/06/17 02:13:55;;;;;;;8.60;7.27;;;;;;;;;;4992108;28;20448;-49
2021/06/17 02:16:22;;;;;;;8.90;7.43;;;;;;;;;;4993061;28;20889;-49
2021/06/17 02:18:48;;;;;;;9.67;6.80;;;;;;;;;;4993047;28;20450;-50
2021/06/17 02:21:15;;;;;;;9.00;8.10;;;;;;;;;;4993013;28;20452;-49
2021/06/17 02:23:42;;;;;;;9.40;8.37;;;;;;;;;;4992830;28;20416;-49
2021/06/17 02:26:09;;;;;;;9.90;8.70;;;;;;;;;;4992879;28;20447;-50
2021/06/17 02:28:37;;;;;;;10.20;8.20;;;;;;;;;;4992743;28;20951;-49
2021/06/17 02:31:07;;;;;;;8.90;7.90;;;;;;;;;;4992851;28;20411;-49
2021/06/17 02:33:35;;;;;;;10.33;8.30;;;;;;;;;;4992638;28;20458;-49
2021/06/17 02:36:01;;;;;;;15.77;8.80;;;;;;;;;;4992717;28;20744;-49
2021/06/17 02:38:33;;;;;;;11.03;8.63;;;;;;;;;;4992737;28;20979;-49
2021/06/17 02:41:01;;;;;;;9.20;8.30;;;;;;;;;;4992611;28;20404;-49
2021/06/17 02:43:42;;;;;;;10.07;8.80;;;;;;;;;;4992623;28;20404;-49
2021/06/17 02:46:08;;;;;;;10.57;9.10;;;;;;;;;;4992551;28;20892;-49
2021/06/17 02:48:34;;;;;;;10.63;8.27;;;;;;;;;;4992483;28;20532;-49
2021/06/17 02:51:00;;;;;;;12.00;8.47;;;;;;;;;;4992434;28;20519;-49
2021/06/17 02:53:26;;;;;;;15.07;9.13;;;;;;;;;;4992031;28;20485;-49
2021/06/17 02:55:53;;;;;;;9.70;8.60;;;;;;;;;;4992543;28;20404;-49
2021/06/17 02:58:35;;;;;;;8.93;8.03;;;;;;;;;;4992241;28;20415;-49
2021/06/17 03:01:13;;;;;;;8.50;7.80;;;;;;;;;;4992414;28;20439;-49
2021/06/17 03:03:45;;;;;;;8.83;8.03;;;;;;;;;;4992087;28;20404;-49
2021/06/17 03:06:11;;;;;;;12.57;8.20;;;;;;;;;;4992016;28;20884;-49
2021/06/17 03:08:56;;;;;;;9.70;8.37;;;;;;;;;;4992136;28;20408;-49
2021/06/17 03:11:22;;;;;;;15.03;8.87;;;;;;;;;;4992251;28;20443;-53
2021/06/17 03:13:50;;;;;;;10.00;9.10;;;;;;;;;;4991922;28;20451;-49
2021/06/17 03:16:20;;;;;;;10.80;9.47;;;;;;;;;;4991936;28;20408;-49
2021/06/17 03:18:47;;;;;;;12.53;10.50;;;;;;;;;;4992008;28;20392;-49
2021/06/17 03:21:14;;;;;;;13.63;8.97;;;;;;;;;;4991978;28;20428;-49
2021/06/17 03:23:42;;;;;;;10.00;9.00;;;;;;;;;;4992012;28;20459;-49
2021/06/17 03:26:10;;;;;;;11.20;9.20;;;;;;;;;;4991997;28;20404;-49
2021/06/17 03:28:38;;;;;;;9.60;8.60;;;;;;;;;;4992085;28;20412;-49
2021/06/17 03:31:06;;;;;;;11.00;9.73;;;;;;;;;;4992025;28;20412;-49
2021/06/17 03:33:36;;;;;;;39.67;32.73;;;;;;;;;;4991402;28;21034;-49
2021/06/17 03:36:03;;;;;;;21.13;18.70;;;;;;;;;;4991049;28;20411;-49
2021/06/17 03:38:31;;;;;;;16.50;13.80;;;;;;;;;;4991734;28;20490;-49
2021/06/17 03:40:58;;;;;;;14.03;12.60;;;;;;;;;;4991722;28;20462;-49
2021/06/17 03:43:25;;;;;;;15.57;13.97;;;;;;;;;;4991564;28;20408;-49
2021/06/17 03:45:52;;;;;;;12.33;11.23;;;;;;;;;;4991313;28;20404;-49
2021/06/17 03:48:18;;;;;;;12.97;11.07;;;;;;;;;;4973964;28;20420;-49
2021/06/17 03:50:46;;;;;;;11.20;8.37;;;;;;;;;;4991355;28;21064;-49
2021/06/17 03:53:14;;;;;;;10.33;9.40;;;;;;;;;;4991178;28;20466;-49
2021/06/17 03:55:42;;;;;;;10.80;9.70;;;;;;;;;;4991323;28;20751;-49
2021/06/17 03:58:08;;;;;;;11.03;8.20;;;;;;;;;;4991132;28;20828;-49
2021/06/17 04:00:34;;;;;;;8.60;7.80;;;;;;;;;;4991248;28;20860;-49
2021/06/17 04:03:04;;;;;;;11.43;7.60;;;;;;;;;;4991248;28;20427;-49
2021/06/17 04:05:30;;;;;;;8.43;7.70;;;;;;;;;;4991219;28;20408;-49
2021/06/17 04:07:58;;;;;;;8.90;8.10;;;;;;;;;;4991471;28;20408;-49
2021/06/17 04:10:24;;;;;;;9.57;8.10;;;;;;;;;;4991200;28;20412;-49
2021/06/17 04:12:54;;;;;;;10.73;7.87;;;;;;;;;;4991042;28;20460;-49
2021/06/17 04:15:20;;;;;;;8.60;7.80;;;;;;;;;;4991457;28;20400;-49
2021/06/17 04:17:51;;;;;;;11.77;8.80;;;;;;;;;;4991087;28;20885;-49
2021/06/17 04:20:32;;;;;;;13.70;8.67;;;;;;;;;;4991468;28;20408;-50
2021/06/17 04:23:00;;;;;;;10.80;8.73;;;;;;;;;;4990968;28;20540;-49
2021/06/17 04:25:26;;;;;;;8.87;8.00;;;;;;;;;;4990984;28;20498;-49
2021/06/17 04:27:56;;;;;;;11.17;9.20;;;;;;;;;;4991138;28;20438;-49
2021/06/17 04:30:23;;;;;;;12.93;10.00;;;;;;;;;;4991133;28;20412;-48
2021/06/17 04:32:50;;;;;;;11.80;9.80;;;;;;;;;;4990846;28;20968;-49
2021/06/17 04:35:17;;;;;;;14.27;10.00;;;;;;;;;;4990959;28;20423;-49
2021/06/17 04:37:44;;;;;;;10.00;9.10;;;;;;;;;;4994220;28;20396;-49
2021/06/17 04:40:10;;;;;;;14.70;12.23;;;;;;;;;;4994713;28;20942;-49
2021/06/17 04:42:37;;;;;;;11.40;7.87;;;;;;;;;;4994832;28;20927;-49
2021/06/17 04:45:03;;;;;;;7.80;7.10;;;;;;;;;;4994787;28;20459;-49
2021/06/17 04:47:29;;;;;;;8.63;6.77;;;;;;;;;;4994600;28;20846;-50
2021/06/17 04:49:55;;;;;;;7.00;6.40;;;;;;;;;;4994953;28;20490;-49
2021/06/17 04:52:25;;;;;;;8.60;6.53;;;;;;;;;;4994331;28;20443;-49
2021/06/17 04:54:51;;;;;;;9.43;6.80;;;;;;;;;;4994753;28;20400;-49
2021/06/17 04:57:17;;;;;;;10.93;6.90;;;;;;;;;;4994367;28;20396;-49
2021/06/17 04:59:43;;;;;;;7.10;6.40;;;;;;;;;;4994652;28;20400;-49
2021/06/17 05:02:09;;;;;;;9.67;6.13;;;;;;;;;;4994381;28;20450;-49
2021/06/17 05:04:35;;;;;;;8.03;7.33;;;;;;;;;;4994521;28;20906;-49
2021/06/17 05:12:14;;;;;;;7.00;6.03;;;;;;;;;;4994324;28;20507;-49
2021/06/17 05:14:40;;;;;;;7.23;6.53;;;;;;;;;;4995029;28;20439;-49
2021/06/17 05:17:06;;;;;;;6.10;5.57;;;;;;;;;;4994261;28;20411;-49
2021/06/17 05:19:32;;;;;;;6.67;6.17;;;;;;;;;;4995128;28;20404;-49
2021/06/17 05:21:58;;;;;;;7.90;6.00;;;;;;;;;;4994385;28;20428;-49
2021/06/17 05:24:24;;;;;;;7.33;6.17;;;;;;;;;;4994437;28;20408;-49
2021/06/17 05:26:50;;;;;;;7.40;6.30;;;;;;;;;;4994068;28;20404;-49
2021/06/17 05:29:16;;;;;;;6.63;6.00;;;;;;;;;;4994253;28;20408;-49
2021/06/17 05:31:42;;;;;;;8.10;6.00;;;;;;;;;;4993838;28;20430;-50
2021/06/17 05:34:08;;;;;;;6.90;6.07;;;;;;;;;;4993826;28;20586;-50
2021/06/17 05:36:34;;;;;;;6.33;5.83;;;;;;;;;;4993666;28;20404;-49
2021/06/17 05:39:00;;;;;;;7.53;6.47;;;;;;;;;;4993896;28;20404;-49
2021/06/17 05:41:26;;;;;;;5.63;5.23;;;;;;;;;;4993708;28;20419;-49
2021/06/17 05:43:53;;;;;;;6.40;5.90;;;;;;;;;;4993844;28;20487;-49
2021/06/17 05:46:19;;;;;;;6.50;5.70;;;;;;;;;;4993392;28;20404;-49
2021/06/17 05:48:45;;;;;;;7.80;5.77;;;;;;;;;;4992624;28;20408;-49
2021/06/17 05:51:11;;;;;;;6.20;5.77;;;;;;;;;;4993712;28;20430;-49
2021/06/17 05:53:37;;;;;;;6.20;5.70;;;;;;;;;;4993368;28;20566;-49
2021/06/17 05:56:03;;;;;;;6.60;6.10;;;;;;;;;;4993443;28;20396;-49
2021/06/17 05:58:29;;;;;;;6.33;5.70;;;;;;;;;;4993494;28;20410;-49
2021/06/17 06:00:55;;;;;;;6.30;5.70;;;;;;;;;;4993418;28;20475;-49
2021/06/17 06:03:21;;;;;;;7.67;5.83;;;;;;;;;;4993256;28;20495;-49
2021/06/17 06:05:47;;;;;;;6.70;5.27;;;;;;;;;;4993517;28;20779;-49
2021/06/17 06:08:13;;;;;;;7.20;5.20;;;;;;;;;;4993124;28;20776;-49
2021/06/17 06:10:40;;;;;;;5.50;5.10;;;;;;;;;;4993424;28;20408;-50
2021/06/17 06:13:06;;;;;;;8.07;5.30;;;;;;;;;;4993159;28;20482;-50
2021/06/17 06:15:35;;;;;;;5.97;5.57;;;;;;;;;;4993317;28;20396;-50
2021/06/17 06:18:07;;;;;;;5.90;5.40;;;;;;;;;;4992960;28;20407;-50
2021/06/17 06:20:34;;;;;;;7.33;5.67;;;;;;;;;;4993213;28;20900;-49
2021/06/17 06:23:00;;;;;;;5.83;5.23;;;;;;;;;;4993003;28;20435;-50
2021/06/17 06:25:26;;;;;;;6.50;5.83;;;;;;;;;;4993187;28;20404;-50
2021/06/17 06:27:52;;;;;;;5.90;5.33;;;;;;;;;;4992900;28;20491;-50
2021/06/17 06:30:18;;;;;;;5.17;4.80;;;;;;;;;;4993038;28;20408;-50
2021/06/17 06:32:44;;;;;;;6.20;5.50;;;;;;;;;;4992688;28;20486;-50
2021/06/17 06:35:11;;;;;;;7.10;5.30;;;;;;;;;;4993095;28;20889;-50
2021/06/17 06:37:38;;;;;;;5.10;4.70;;;;;;;;;;4992684;28;20408;-49
2021/06/17 06:40:04;;;;;;;5.30;4.80;;;;;;;;;;4993335;28;20418;-50
2021/06/17 06:42:30;;;;;;;9.63;5.53;;;;;;;;;;4992904;28;20432;-49
2021/06/17 06:44:56;;;;;;;5.57;5.17;;;;;;;;;;4992950;28;20458;-50
2021/06/17 06:47:22;;;;;;;6.30;5.70;;;;;;;;;;4992680;28;20444;-50
2021/06/17 06:49:48;;;;;;;8.50;4.80;;;;;;;;;;4992655;28;20408;-49
2021/06/17 06:52:14;;;;;;;6.47;5.87;;;;;;;;;;4992327;28;20474;-50
2021/06/17 06:54:40;;;;;;;8.07;5.63;;;;;;;;;;4992518;28;20408;-49
2021/06/17 06:57:07;;;;;;;7.87;5.40;;;;;;;;;;4992349;28;20422;-51
2021/06/17 06:59:33;;;;;;;5.53;5.03;;;;;;;;;;4992045;28;20466;-50
2021/06/17 07:01:59;;;;;;;5.70;5.20;;;;;;;;;;4992476;28;20424;-50
2021/06/17 07:04:25;;;;;;;5.60;4.70;;;;;;;;;;4992272;28;20435;-50
2021/06/17 07:06:51;;;;;;;8.10;5.13;;;;;;;;;;4992343;28;20904;-50
2021/06/17 07:09:17;;;;;;;6.00;5.50;;;;;;;;;;4992352;28;20408;-50
2021/06/17 07:11:45;;;;;;;5.60;5.00;;;;;;;;;;4992198;28;20494;-50
2021/06/17 07:14:11;;;;;;;5.77;5.27;;;;;;;;;;4991981;28;21038;-50
2021/06/17 07:16:37;;;;;;;5.60;5.10;;;;;;;;;;4992050;28;20408;-49
2021/06/17 07:19:06;;;;;;;4.63;4.23;;;;;;;;;;4992070;28;20814;-50
2021/06/17 07:21:33;;;;;;;6.80;5.03;;;;;;;;;;4992087;28;20428;-50
2021/06/17 07:23:59;;;;;;;5.93;4.77;;;;;;;;;;4991957;28;20420;-50
2021/06/17 07:26:28;;;;;;;4.77;4.37;;;;;;;;;;4991914;28;20415;-50
2021/06/17 07:28:57;;;;;;;5.47;4.50;;;;;;;;;;4991927;28;20422;-50
2021/06/17 07:31:23;;;;;;;10.27;4.70;;;;;;;;;;4992079;28;20514;-49
2021/06/17 07:33:49;;;;;;;5.30;4.80;;;;;;;;;;4991709;28;20452;-49
2021/06/17 07:36:17;;;;;;;5.27;4.87;;;;;;;;;;4991792;28;20400;-50
2021/06/17 07:38:43;;;;;;;7.23;4.57;;;;;;;;;;4991887;28;20412;-50
2021/06/17 07:41:09;;;;;;;5.07;4.50;;;;;;;;;;4991772;28;20954;-50
2021/06/17 07:43:35;;;;;;;5.77;4.80;;;;;;;;;;4991915;28;20412;-50
2021/06/17 07:46:02;;;;;;;4.97;4.20;;;;;;;;;;4991583;28;20485;-49
2021/06/17 07:48:28;;;;;;;5.43;4.90;;;;;;;;;;4991687;28;20412;-50
2021/06/17 07:50:54;;;;;;;4.53;4.23;;;;;;;;;;4991469;28;20408;-50
2021/06/17 07:53:20;;;;;;;7.73;4.20;;;;;;;;;;4991342;28;20463;-50
2021/06/17 07:55:46;;;;;;;7.23;5.23;;;;;;;;;;4991467;28;20401;-50
2021/06/17 07:58:12;;;;;;;6.00;5.50;;;;;;;;;;4991561;28;20455;-50
2021/06/17 08:00:39;;;;;;;6.47;5.10;;;;;;;;;;4991388;28;20451;-50
2021/06/17 08:03:05;;;;;;;7.23;4.40;;;;;;;;;;4991398;28;20498;-50
2021/06/17 08:05:31;;;;;;;6.17;4.97;;;;;;;;;;4991337;28;20411;-49
2021/06/17 08:07:57;;;;;;;5.77;4.57;;;;;;;;;;4990441;28;20408;-49
2021/06/17 08:10:26;;;;;;;4.40;4.00;;;;;;;;;;4990776;28;20967;-49
2021/06/17 08:12:52;;;;;;;5.07;4.73;;;;;;;;;;4990996;28;20978;-50
2021/06/17 08:15:18;;;;;;;8.10;4.47;;;;;;;;;;4991238;28;20400;-50
2021/06/17 08:17:44;;;;;;;5.00;4.60;;;;;;;;;;4991188;28;20392;-50
2021/06/17 08:20:10;;;;;;;8.70;4.47;;;;;;;;;;4989525;28;20396;-50
2021/06/17 08:22:37;;;;;;;4.63;4.20;;;;;;;;;;4990720;28;20482;-50
2021/06/17 08:25:03;;;;;;;4.40;4.10;;;;;;;;;;4991125;28;20888;-52
2021/06/17 08:27:29;;;;;;;7.80;7.20;;;;;;;;;;4991096;28;20416;-51
2021/06/17 08:29:55;;;;;;;5.07;4.67;;;;;;;;;;4991484;28;20413;-49
2021/06/17 08:32:21;;;;;;;4.73;4.33;;;;;;;;;;4991079;28;20568;-52
2021/06/17 08:34:47;;;;;;;5.83;4.10;;;;;;;;;;4991010;28;20420;-52
2021/06/17 08:37:14;;;;;;;4.83;4.30;;;;;;;;;;4990789;28;20260;-51
2021/06/17 08:39:40;;;;;;;4.17;3.77;;;;;;;;;;4991199;28;20180;-51
2021/06/17 08:42:06;;;;;;;6.93;4.37;;;;;;;;;;4991144;28;20424;-52
2021/06/17 08:44:32;;;;;;;6.70;3.20;;;;;;;;;;4991300;28;20416;-52
2021/06/17 08:46:58;;;;;;;3.57;3.27;;;;;;;;;;4991125;28;20415;-52
2021/06/17 08:49:26;;;;;;;3.77;3.53;;;;;;;;;;4991237;28;20416;-52
2021/06/17 08:51:57;;;;;;;3.43;3.13;;;;;;;;;;4990777;28;20428;-53
2021/06/17 08:54:24;;;;;;;3.60;3.40;;;;;;;;;;4991193;28;20466;-54
2021/06/17 08:56:50;;;;;;;3.70;3.40;;;;;;;;;;4990933;28;20400;-54
2021/06/17 08:59:17;;;;;;;3.60;3.40;;;;;;;;;;4991098;28;20482;-53
2021/06/17 09:01:56;;;;;;;4.60;3.60;;;;;;;;;;4990960;28;20428;-54
2021/06/17 09:04:24;;;;;;;3.93;3.63;;;;;;;;;;4990855;28;20414;-53
2021/06/17 09:07:00;;;;;;;4.13;3.73;;;;;;;;;;4990798;28;20404;-54
2021/06/17 09:09:52;;;;;;;3.93;3.60;;;;;;;;;;4989713;28;20407;-53
2021/06/17 09:12:22;;;;;;;3.60;3.40;;;;;;;;;;4987773;28;20454;-52
2021/06/17 09:14:52;;;;;;;6.03;4.13;;;;;;;;;;4990966;28;20401;-54
2021/06/17 09:17:18;;;;;;;3.50;3.30;;;;;;;;;;4990763;28;20396;-53
2021/06/17 09:19:45;;;;;;;3.37;3.03;;;;;;;;;;4990836;28;20950;-52
2021/06/17 09:22:15;;;;;;;3.60;3.50;;;;;;;;;;4990790;28;20444;-53
2021/06/17 09:24:42;;;;;;;7.60;4.10;;;;;;;;;;4994190;28;20451;-53
2021/06/17 09:27:43;;;;;;;5.27;3.43;;;;;;;;;;4993912;28;20400;-52
2021/06/17 09:30:12;;;;;;;3.50;3.30;;;;;;;;;;4962195;28;20424;-53
2021/06/17 09:32:39;;;;;;;3.70;3.40;;;;;;;;;;4993828;28;20943;-53
2021/06/17 09:35:14;;;;;;;4.50;3.53;;;;;;;;;;4994123;28;20396;-52
2021/06/17 09:37:40;;;;;;;4.93;3.40;;;;;;;;;;4993568;28;20400;-52
2021/06/17 09:40:25;;;;;;;6.43;3.43;;;;;;;;;;4993843;28;20495;-53
2021/06/17 09:42:52;;;;;;;3.50;3.30;;;;;;;;;;4993722;28;20211;-53
2021/06/17 09:45:20;;;;;;;3.70;3.43;;;;;;;;;;4993841;28;20495;-53
2021/06/17 09:47:46;;;;;;;3.40;3.10;;;;;;;;;;4993625;28;20955;-51
2021/06/17 09:50:21;;;;;;;8.33;3.30;;;;;;;;;;4993553;28;20497;-53
2021/06/17 09:52:48;;;;;;;3.50;3.30;;;;;;;;;;4993547;28;20551;-53
2021/06/17 09:55:14;;;;;;;3.30;2.80;;;;;;;;;;4993640;28;20479;-54
2021/06/17 09:57:40;;;;;;;4.27;3.30;;;;;;;;;;4993483;28;20400;-53
2021/06/17 10:00:11;;;;;;;3.13;2.93;;;;;;;;;;4993531;28;20775;-53
2021/06/17 10:02:38;;;;;;;3.50;3.00;;;;;;;;;;4993419;28;20256;-52
2021/06/17 10:05:25;;;;;;;3.63;3.33;;;;;;;;;;4993704;28;20424;-53
2021/06/17 10:07:51;;;;;;;3.93;3.60;;;;;;;;;;4991482;28;20888;-52
2021/06/17 10:10:21;;;;;;;3.70;3.40;;;;;;;;;;4992049;28;20408;-53
2021/06/17 10:12:47;;;;;;;2.97;2.87;;;;;;;;;;4991787;28;20984;-52
2021/06/17 10:15:13;;;;;;;3.53;3.33;;;;;;;;;;4992889;28;20399;-52
2021/06/17 10:17:39;;;;;;;4.23;3.20;;;;;;;;;;4992988;28;20966;-52
2021/06/17 10:20:07;;;;;;;3.20;3.00;;;;;;;;;;4993240;28;20400;-54
2021/06/17 10:22:36;;;;;;;3.53;3.33;;;;;;;;;;4992848;28;20432;-53
2021/06/17 10:25:02;;;;;;;3.50;3.20;;;;;;;;;;4992908;28;20780;-53
2021/06/17 10:27:36;;;;;;;5.43;3.27;;;;;;;;;;4991249;28;21283;-53
2021/06/17 10:30:03;;;;;;;3.70;3.40;;;;;;;;;;4992606;28;20403;-53
2021/06/17 10:32:40;;;;;;;3.30;3.00;;;;;;;;;;4992550;28;20447;-53
2021/06/17 10:35:07;;;;;;;4.17;3.00;;;;;;;;;;4992391;28;20404;-54
2021/06/17 10:37:34;;;;;;;3.43;3.07;;;;;;;;;;4992567;28;21104;-53
2021/06/17 10:40:09;;;;;;;2.87;2.67;;;;;;;;;;4992793;28;20423;-53
2021/06/17 10:42:35;;;;;;;3.20;2.90;;;;;;;;;;4992522;28;20423;-54
2021/06/17 10:45:02;;;;;;;4.77;4.37;;;;;;;;;;4992702;28;20779;-52
2021/06/17 10:47:42;;;;;;;3.47;3.27;;;;;;;;;;4992436;28;20966;-54
2021/06/17 10:50:29;;;;;;;3.20;3.00;;;;;;;;;;4992651;28;20884;-53
2021/06/17 10:53:14;;;;;;;4.47;3.13;;;;;;;;;;4982305;28;20471;-53
2021/06/17 10:56:09;;;;;;;3.30;3.00;;;;;;;;;;4992448;28;20458;-54
2021/06/17 10:58:44;;;;;;;3.10;3.00;;;;;;;;;;4979540;28;20930;-54
2021/06/17 11:01:23;;;;;;;3.77;3.30;;;;;;;;;;4992508;28;21062;-53
2021/06/17 11:04:08;;;;;;;5.20;3.40;;;;;;;;;;4991149;28;20404;-53
2021/06/17 11:06:49;;;;;;;3.60;2.93;;;;;;;;;;4992018;28;20450;-54
2021/06/17 11:09:34;;;;;;;3.63;3.10;;;;;;;;;;4992012;28;20404;-53
2021/06/17 11:12:00;;;;;;;3.23;2.77;;;;;;;;;;4992189;28;20420;-55
2021/06/17 11:14:26;;;;;;;3.60;2.70;;;;;;;;;;4991780;28;20474;-53
2021/06/17 11:16:56;;;;;;;3.37;2.97;;;;;;;;;;4992055;28;20403;-54
2021/06/17 11:19:22;;;;;;;2.70;2.60;;;;;;;;;;4992034;28;20400;-53
2021/06/17 11:21:49;;;;;;;3.13;2.83;;;;;;;;;;4991909;28;20430;-53
2021/06/17 11:24:28;;;;;;;2.93;2.70;;;;;;;;;;4991766;28;20448;-52
2021/06/17 11:26:54;;;;;;;2.70;2.50;;;;;;;;;;4991849;28;20404;-53
2021/06/17 11:29:22;;;;;;;3.57;2.50;;;;;;;;;;4992034;28;20782;-53
2021/06/17 11:31:48;;;;;;;2.97;2.73;;;;;;;;;;4991776;28;20920;-53
2021/06/17 11:34:15;;;;;;;2.30;2.20;;;;;;;;;;4991478;28;20447;-53
2021/06/17 11:36:48;;;;;;;3.13;2.93;;;;;;;;;;4991410;28;20172;-54
2021/06/17 11:39:20;;;;;;;2.57;2.47;;;;;;;;;;4991773;28;20392;-52
2021/06/17 11:41:46;;;;;;;5.80;2.80;;;;;;;;;;4991502;28;20439;-53
2021/06/17 11:44:12;;;;;;;3.83;2.97;;;;;;;;;;4991702;28;20442;-53
2021/06/17 11:46:39;;;;;;;2.97;2.77;;;;;;;;;;4990446;28;20411;-52
2021/06/17 11:49:09;;;;;;;3.40;3.10;;;;;;;;;;4991590;28;20408;-54
2021/06/17 11:51:46;;;;;;;2.60;2.47;;;;;;;;;;4991008;28;20443;-50
2021/06/17 11:54:23;;;;;;;3.17;2.93;;;;;;;;;;4989736;28;20560;-55
2021/06/17 11:56:50;;;;;;;3.00;2.90;;;;;;;;;;4989564;28;20530;-50
2021/06/17 11:59:16;;;;;;;4.10;3.60;;;;;;;;;;4990868;28;20404;-53
2021/06/17 12:02:01;;;;;;;3.13;2.93;;;;;;;;;;4991221;28;20424;-52
2021/06/17 12:04:40;;;;;;;3.73;3.13;;;;;;;;;;4991396;28;20405;-50
2021/06/17 12:07:06;;;;;;;4.50;3.30;;;;;;;;;;4991129;28;20414;-49
2021/06/17 12:09:32;;;;;;;4.20;2.93;;;;;;;;;;4991446;28;21108;-49
2021/06/17 12:12:14;;;;;;;3.43;3.13;;;;;;;;;;4991076;28;20443;-49
2021/06/17 12:14:41;;;;;;;3.67;3.37;;;;;;;;;;4991280;28;20331;-50
2021/06/17 12:17:07;;;;;;;3.20;2.90;;;;;;;;;;4989090;28;20463;-53
2021/06/17 12:19:33;;;;;;;3.23;2.93;;;;;;;;;;4991333;28;20956;-54
2021/06/17 12:22:06;;;;;;;5.33;3.80;;;;;;;;;;4991209;28;20580;-53
2021/06/17 12:24:33;;;;;;;3.20;2.90;;;;;;;;;;4991223;28;20185;-49
2021/06/17 12:26:59;;;;;;;7.13;4.00;;;;;;;;;;4991044;28;20418;-50
2021/06/17 12:29:28;;;;;;;3.60;3.40;;;;;;;;;;4991379;28;20488;-50
2021/06/17 12:31:58;;;;;;;2.83;2.63;;;;;;;;;;4990928;28;20847;-49
2021/06/17 12:34:29;;;;;;;2.70;2.50;;;;;;;;;;4991414;28;20501;-50
2021/06/17 12:37:03;;;;;;;3.73;3.20;;;;;;;;;;4990976;28;20408;-55
2021/06/17 12:39:29;;;;;;;5.83;2.70;;;;;;;;;;4991345;28;20400;-49
2021/06/17 12:41:55;;;;;;;4.07;2.70;;;;;;;;;;4991358;28;20503;-49
2021/06/17 12:44:27;;;;;;;4.90;2.77;;;;;;;;;;4990982;28;20939;-49
2021/06/17 12:46:57;;;;;;;4.40;3.00;;;;;;;;;;4991056;28;20440;-49
2021/06/17 12:54:37;;;;;;;3.60;3.33;;;;;;;;;;4989432;28;20493;-53
2021/06/17 12:57:04;;;;;;;6.60;3.20;;;;;;;;;;4991205;28;20403;-52
2021/06/17 12:59:34;;;;;;;3.23;2.93;;;;;;;;;;4994578;28;20412;-50
2021/06/17 13:02:00;;;;;;;4.30;3.47;;;;;;;;;;4994414;28;20432;-52
2021/06/17 13:04:26;;;;;;;4.90;3.10;;;;;;;;;;4994374;28;20406;-52
2021/06/17 13:06:52;;;;;;;6.73;3.17;;;;;;;;;;4994339;28;20862;-53
2021/06/17 13:09:25;;;;;;;3.13;2.93;;;;;;;;;;4994480;28;20496;-50
2021/06/17 13:12:10;;;;;;;3.43;3.13;;;;;;;;;;4994379;28;20189;-51
2021/06/17 13:14:56;;;;;;;3.53;3.23;;;;;;;;;;4993589;28;20490;-52
2021/06/17 13:17:22;;;;;;;7.43;3.00;;;;;;;;;;4992926;28;20407;-51
2021/06/17 13:19:52;;;;;;;4.17;3.87;;;;;;;;;;4994052;28;20467;-50
2021/06/17 13:22:20;;;;;;;3.77;3.33;;;;;;;;;;4994093;28;20661;-50
2021/06/17 13:24:47;;;;;;;3.73;3.23;;;;;;;;;;4994059;28;20986;-52
2021/06/17 13:27:20;;;;;;;3.90;2.73;;;;;;;;;;4994087;28;20410;-50
2021/06/17 13:30:01;;;;;;;10.33;3.93;;;;;;;;;;4993404;28;20412;-52
2021/06/17 13:32:28;;;;;;;4.70;3.20;;;;;;;;;;4992272;28;20531;-50
2021/06/17 13:34:54;;;;;;;9.23;3.63;;;;;;;;;;4992133;28;20408;-52
2021/06/17 13:37:20;;;;;;;3.30;3.10;;;;;;;;;;4991840;28;20944;-51
2021/06/17 13:39:47;;;;;;;3.57;3.27;;;;;;;;;;4992072;28;20454;-51
2021/06/17 13:42:13;;;;;;;4.00;3.70;;;;;;;;;;4991721;28;20184;-54
2021/06/17 13:44:39;;;;;;;6.13;3.70;;;;;;;;;;4991980;28;20938;-52
2021/06/17 13:47:08;;;;;;;4.30;3.30;;;;;;;;;;4993016;28;20396;-50
2021/06/17 13:49:34;;;;;;;4.13;3.40;;;;;;;;;;4993773;28;20399;-49
2021/06/17 13:52:00;;;;;;;4.43;4.00;;;;;;;;;;4993155;28;20423;-50
2021/06/17 13:54:27;;;;;;;5.00;3.90;;;;;;;;;;4993698;28;20463;-49
2021/06/17 13:56:53;;;;;;;4.70;3.53;;;;;;;;;;4993789;28;20400;-53
2021/06/17 13:59:20;;;;;;;4.00;3.73;;;;;;;;;;4993612;28;20408;-50
2021/06/17 14:01:46;;;;;;;4.73;3.90;;;;;;;;;;4993411;28;20475;-50
2021/06/17 14:04:16;;;;;;;5.17;3.63;;;;;;;;;;4993476;28;20439;-50
2021/06/17 14:06:42;;;;;;;4.23;3.90;;;;;;;;;;4993354;28;20938;-50
2021/06/17 14:09:08;;;;;;;5.77;3.77;;;;;;;;;;4992378;28;20494;-50
2021/06/17 14:11:34;;;;;;;4.70;4.03;;;;;;;;;;4993403;28;20539;-51
2021/06/17 14:14:00;;;;;;;4.77;4.40;;;;;;;;;;4993155;28;20467;-50
2021/06/17 14:16:26;;;;;;;5.53;5.03;;;;;;;;;;4993211;28;20765;-51
2021/06/17 14:18:52;;;;;;;4.60;4.20;;;;;;;;;;4993143;28;20172;-51
2021/06/17 14:21:18;;;;;;;6.50;3.90;;;;;;;;;;4993380;28;20268;-51
2021/06/17 14:23:44;;;;;;;4.73;4.33;;;;;;;;;;4993308;28;20168;-50
2021/06/17 14:26:10;;;;;;;6.33;5.00;;;;;;;;;;4993278;28;20432;-52
2021/06/17 14:28:36;;;;;;;4.80;4.50;;;;;;;;;;4993107;28;20664;-53
2021/06/17 14:31:02;;;;;;;5.23;4.83;;;;;;;;;;4993032;28;20415;-53
2021/06/17 14:33:28;;;;;;;5.37;4.97;;;;;;;;;;4992661;28;20204;-54
2021/06/17 14:35:55;;;;;;;6.33;5.10;;;;;;;;;;4993031;28;20412;-50
2021/06/17 14:38:21;;;;;;;10.90;5.10;;;;;;;;;;4993031;28;20400;-50
2021/06/17 14:40:47;;;;;;;5.30;4.80;;;;;;;;;;4992757;28;20415;-50
2021/06/17 14:43:13;;;;;;;5.07;4.67;;;;;;;;;;4992718;28;20181;-50
2021/06/17 14:45:40;;;;;;;6.07;5.30;;;;;;;;;;4992666;28;20400;-50
2021/06/17 14:48:06;;;;;;;8.27;5.50;;;;;;;;;;4992518;28;20907;-50
2021/06/17 14:50:32;;;;;;;6.10;5.70;;;;;;;;;;4992451;28;20415;-51
2021/06/17 14:52:58;;;;;;;6.20;5.53;;;;;;;;;;4992272;28;20475;-52
2021/06/17 14:55:24;;;;;;;6.03;5.50;;;;;;;;;;4992288;28;20400;-52
2021/06/17 14:57:50;;;;;;;6.40;5.90;;;;;;;;;;4992329;28;20225;-50